Observation data for Friona on 02/15/2017      Previous  Date  Next       Current Mesonet Observations  Soil Data  Daily Summary Page  Observations in Plain Language
KFAS 150600Z 29005KT M02/M04 A3022 RMK A01 T10241040  RH  090%=      5-min Rain = 0
KFAS 150605Z 29005KT M03/M04 A3022 RMK A01 T10251040  RH  090%=      5-min Rain = 0
KFAS 150610Z 30005KT M03/M04 A3022 RMK A01 T10261041  RH  091%=      5-min Rain = 0
KFAS 150615Z 30006KT M03/M04 A3022 RMK A01 T10271041  RH  091%=      5-min Rain = 0
KFAS 150620Z 31006KT M03/M04 A3022 RMK A01 T10251039  RH  091%=      5-min Rain = 0
KFAS 150625Z 31007KT M02/M04 A3022 RMK A01 T10241038  RH  091%=      5-min Rain = 0
KFAS 150630Z 31006KT M02/M04 A3022 RMK A01 T10231038  RH  090%=      5-min Rain = 0
KFAS 150635Z 30004KT M02/M04 A3022 RMK A01 T10241039  RH  090%=      5-min Rain = 0
KFAS 150640Z 29005KT M02/M04 A3022 RMK A01 T10241039  RH  091%=      5-min Rain = 0
KFAS 150645Z 29007KT M03/M04 A3022 RMK A01 T10251040  RH  091%=      5-min Rain = 0
KFAS 150650Z 29007KT M02/M04 A3022 RMK A01 T10231038  RH  090%=      5-min Rain = 0
KFAS 150655Z 29006KT M02/M04 A3022 RMK A01 T10211038  RH  089%=      5-min Rain = 0
KFAS 150700Z 29005KT M02/M04 A3022 RMK A01 T10201038  RH  089%=      5-min Rain = 0
KFAS 150705Z 30005KT M02/M04 A3022 RMK A01 T10211040  RH  088%=      5-min Rain = 0
KFAS 150710Z 31005KT M02/M04 A3022 RMK A01 T10221040  RH  089%=      5-min Rain = 0
KFAS 150715Z 31005KT M02/M04 A3022 RMK A01 T10231040  RH  089%=      5-min Rain = 0
KFAS 150720Z 31005KT M02/M04 A3022 RMK A01 T10241040  RH  089%=      5-min Rain = 0
KFAS 150725Z 31005KT M02/M04 A3022 RMK A01 T10231040  RH  089%=      5-min Rain = 0
KFAS 150730Z 31005KT M02/M04 A3023 RMK A01 T10231040  RH  089%=      5-min Rain = 0
KFAS 150735Z 31006KT M02/M04 A3023 RMK A01 T10231040  RH  089%=      5-min Rain = 0
KFAS 150740Z 31006KT M02/M04 A3023 RMK A01 T10221039  RH  089%=      5-min Rain = 0
KFAS 150745Z 31006KT M02/M04 A3023 RMK A01 T10221040  RH  089%=      5-min Rain = 0
KFAS 150750Z 32005KT M02/M04 A3023 RMK A01 T10221040  RH  089%=      5-min Rain = 0
KFAS 150755Z 32006KT M02/M04 A3023 RMK A01 T10231041  RH  088%=      5-min Rain = 0
KFAS 150800Z 32006KT M02/M04 A3023 RMK A01 T10241043  RH  088%=      5-min Rain = 0
KFAS 150805Z 33006KT M02/M04 A3023 RMK A01 T10241043  RH  088%=      5-min Rain = 0
KFAS 150810Z 33006KT M02/M04 A3023 RMK A01 T10231041  RH  089%=      5-min Rain = 0
KFAS 150815Z 32007KT M02/M04 A3023 RMK A01 T10231041  RH  088%=      5-min Rain = 0
KFAS 150820Z 33007KT M02/M04 A3023 RMK A01 T10241042  RH  089%=      5-min Rain = 0
KFAS 150825Z 33008KT M02/M04 A3023 RMK A01 T10231040  RH  089%=      5-min Rain = 0
KFAS 150830Z 32008KT M02/M04 A3023 RMK A01 T10211039  RH  089%=      5-min Rain = 0
KFAS 150835Z 32007KT M02/M04 A3023 RMK A01 T10201039  RH  088%=      5-min Rain = 0
KFAS 150840Z 33007KT M02/M04 A3023 RMK A01 T10221041  RH  088%=      5-min Rain = 0
KFAS 150845Z 32008KT M02/M04 A3023 RMK A01 T10221039  RH  089%=      5-min Rain = 0
KFAS 150850Z 32008KT M02/M04 A3023 RMK A01 T10211039  RH  088%=      5-min Rain = 0
KFAS 150855Z 32009KT M02/M04 A3023 RMK A01 T10201039  RH  087%=      5-min Rain = 0
KFAS 150900Z 32008KT M02/M04 A3023 RMK A01 T10191040  RH  087%=      5-min Rain = 0
KFAS 150905Z 32009KT M02/M04 A3023 RMK A01 T10191040  RH  087%=      5-min Rain = 0
KFAS 150910Z 32008KT M02/M04 A3023 RMK A01 T10191039  RH  087%=      5-min Rain = 0
KFAS 150915Z 32008KT M02/M04 A3023 RMK A01 T10191040  RH  087%=      5-min Rain = 0
KFAS 150920Z 32009KT M02/M04 A3023 RMK A01 T10191040  RH  087%=      5-min Rain = 0
KFAS 150925Z 32009KT M02/M04 A3023 RMK A01 T10191040  RH  087%=      5-min Rain = 0
KFAS 150930Z 33009KT M02/M04 A3023 RMK A01 T10191040  RH  086%=      5-min Rain = 0
KFAS 150935Z 33010KT M02/M04 A3023 RMK A01 T10191041  RH  086%=      5-min Rain = 0
KFAS 150940Z 32010KT M02/M04 A3022 RMK A01 T10191041  RH  086%=      5-min Rain = 0
KFAS 150945Z 33009KT M02/M04 A3022 RMK A01 T10181040  RH  086%=      5-min Rain = 0
KFAS 150950Z 33010KT M02/M04 A3022 RMK A01 T10171040  RH  086%=      5-min Rain = 0
KFAS 150955Z 33010KT M02/M04 A3022 RMK A01 T10171039  RH  086%=      5-min Rain = 0
KFAS 151000Z 33009KT M02/M04 A3022 RMK A01 T10171039  RH  086%=      5-min Rain = 0
KFAS 151005Z 33009KT M02/M04 A3022 RMK A01 T10171040  RH  086%=      5-min Rain = 0
KFAS 151010Z 33008KT M02/M04 A3022 RMK A01 T10181040  RH  086%=      5-min Rain = 0
KFAS 151015Z 33008KT M02/M04 A3022 RMK A01 T10191040  RH  086%=      5-min Rain = 0
KFAS 151020Z 33008KT M02/M04 A3022 RMK A01 T10201041  RH  087%=      5-min Rain = 0
KFAS 151025Z 33008KT M02/M04 A3022 RMK A01 T10201041  RH  087%=      5-min Rain = 0
KFAS 151030Z 33008KT M02/M04 A3022 RMK A01 T10211041  RH  087%=      5-min Rain = 0
KFAS 151035Z 33008KT M02/M04 A3022 RMK A01 T10211041  RH  087%=      5-min Rain = 0
KFAS 151040Z 33008KT M02/M04 A3022 RMK A01 T10211042  RH  087%=      5-min Rain = 0
KFAS 151045Z 33008KT M02/M04 A3022 RMK A01 T10221042  RH  087%=      5-min Rain = 0
KFAS 151050Z 33008KT M02/M04 A3022 RMK A01 T10211042  RH  087%=      5-min Rain = 0
KFAS 151055Z 33008KT M02/M04 A3022 RMK A01 T10221042  RH  087%=      5-min Rain = 0
KFAS 151100Z 33007KT M02/M04 A3022 RMK A01 T10231043  RH  087%=      5-min Rain = 0
KFAS 151105Z 33007KT M02/M04 A3023 RMK A01 T10241044  RH  087%=      5-min Rain = 0
KFAS 151110Z 33007KT M03/M05 A3023 RMK A01 T10251045  RH  087%=      5-min Rain = 0
KFAS 151115Z 33007KT M03/M05 A3023 RMK A01 T10261045  RH  088%=      5-min Rain = 0
KFAS 151120Z 33008KT M03/M05 A3023 RMK A01 T10261046  RH  088%=      5-min Rain = 0
KFAS 151125Z 33008KT M03/M05 A3023 RMK A01 T10271046  RH  088%=      5-min Rain = 0
KFAS 151130Z 33007KT M03/M05 A3023 RMK A01 T10281046  RH  089%=      5-min Rain = 0
KFAS 151135Z 33007KT M03/M05 A3023 RMK A01 T10281046  RH  089%=      5-min Rain = 0
KFAS 151140Z 33008KT M03/M05 A3023 RMK A01 T10281046  RH  089%=      5-min Rain = 0
KFAS 151145Z 33008KT M03/M05 A3023 RMK A01 T10281045  RH  089%=      5-min Rain = 0
KFAS 151150Z 33008KT M03/M05 A3023 RMK A01 T10271045  RH  089%=      5-min Rain = 0
KFAS 151155Z 33008KT M03/M05 A3023 RMK A01 T10281045  RH  089%=      5-min Rain = 0
KFAS 151200Z 33008KT M03/M05 A3023 RMK A01 T10281045  RH  089%=      5-min Rain = 0
KFAS 151205Z 33009KT M03/M05 A3023 RMK A01 T10281046  RH  089%=      5-min Rain = 0
KFAS 151210Z 33008KT M03/M05 A3023 RMK A01 T10281045  RH  089%=      5-min Rain = 0
KFAS 151215Z 33008KT M03/M05 A3023 RMK A01 T10281046  RH  089%=      5-min Rain = 0
KFAS 151220Z 33008KT M03/M05 A3023 RMK A01 T10281046  RH  088%=      5-min Rain = 0
KFAS 151225Z 33007KT M03/M05 A3023 RMK A01 T10291048  RH  088%=      5-min Rain = 0
KFAS 151230Z 33007KT M03/M05 A3023 RMK A01 T10311049  RH  088%=      5-min Rain = 0
KFAS 151235Z 33007KT M03/M05 A3023 RMK A01 T10311049  RH  089%=      5-min Rain = 0
KFAS 151240Z 33008KT M03/M05 A3023 RMK A01 T10321048  RH  089%=      5-min Rain = 0
KFAS 151245Z 33008KT M03/M05 A3023 RMK A01 T10321048  RH  089%=      5-min Rain = 0
KFAS 151250Z 33008KT M03/M05 A3023 RMK A01 T10311048  RH  089%=      5-min Rain = 0
KFAS 151255Z 33006KT M03/M05 A3023 RMK A01 T10311049  RH  089%=      5-min Rain = 0
KFAS 151300Z 33007KT M03/M05 A3023 RMK A01 T10321049  RH  089%=      5-min Rain = 0
KFAS 151305Z 33007KT M03/M05 A3023 RMK A01 T10331050  RH  089%=      5-min Rain = 0
KFAS 151310Z 33007KT M03/M05 A3023 RMK A01 T10341051  RH  089%=      5-min Rain = 0
KFAS 151315Z 32008KT M03/M05 A3024 RMK A01 T10331050  RH  089%=      5-min Rain = 0
KFAS 151320Z 33008KT M03/M05 A3024 RMK A01 T10321050  RH  089%=      5-min Rain = 0
KFAS 151325Z 32007KT M03/M05 A3024 RMK A01 T10321050  RH  088%=      5-min Rain = 0
KFAS 151330Z 32006KT M03/M05 A3025 RMK A01 T10341052  RH  088%=      5-min Rain = 0
KFAS 151335Z 32005KT M04/M05 A3025 RMK A01 T10361054  RH  088%=      5-min Rain = 0
KFAS 151340Z 31005KT M04/M06 A3025 RMK A01 T10371055  RH  088%=      5-min Rain = 0
KFAS 151345Z 30005KT M04/M06 A3025 RMK A01 T10381055  RH  089%=      5-min Rain = 0
KFAS 151350Z 28005KT M04/M05 A3025 RMK A01 T10371054  RH  089%=      5-min Rain = 0
KFAS 151355Z 28005KT M04/M05 A3025 RMK A01 T10371054  RH  089%=      5-min Rain = 0
KFAS 151400Z 29006KT M04/M05 A3025 RMK A01 T10351053  RH  088%=      5-min Rain = 0
KFAS 151405Z 29006KT M03/M05 A3025 RMK A01 T10321050  RH  088%=      5-min Rain = 0
KFAS 151410Z 29005KT M03/M05 A3025 RMK A01 T10281048  RH  087%=      5-min Rain = 0
KFAS 151415Z 29005KT M03/M05 A3026 RMK A01 T10261047  RH  087%=      5-min Rain = 0
KFAS 151420Z 30004KT M02/M04 A3026 RMK A01 T10241044  RH  087%=      5-min Rain = 0
KFAS 151425Z 30004KT M02/M04 A3026 RMK A01 T10211040  RH  087%=      5-min Rain = 0
KFAS 151430Z 30004KT M02/M04 A3026 RMK A01 T10161037  RH  087%=      5-min Rain = 0
KFAS 151435Z 30003KT M01/M03 A3026 RMK A01 T10121033  RH  087%=      5-min Rain = 0
KFAS 151440Z 30003KT M01/M03 A3027 RMK A01 T10071029  RH  086%=      5-min Rain = 0
KFAS 151445Z 30003KT M00/M03 A3027 RMK A01 T10031028  RH  084%=      5-min Rain = 0
KFAS 151450Z 28003KT 00/M03 A3027 RMK A01 T00011026  RH  083%=      5-min Rain = 0
KFAS 151455Z 28003KT 00/M02 A3028 RMK A01 T00041023  RH  083%=      5-min Rain = 0
KFAS 151500Z 28003KT 01/M02 A3028 RMK A01 T00081022  RH  081%=      5-min Rain = 0
KFAS 151505Z 28003KT 01/M02 A3028 RMK A01 T00121020  RH  080%=      5-min Rain = 0
KFAS 151510Z 29003KT 02/M02 A3028 RMK A01 T00151019  RH  079%=      5-min Rain = 0
KFAS 151515Z 29003KT 02/M02 A3028 RMK A01 T00191016  RH  078%=      5-min Rain = 0
KFAS 151520Z 29003KT 02/M01 A3028 RMK A01 T00241012  RH  078%=      5-min Rain = 0
KFAS 151525Z 30005KT 03/M02 A3028 RMK A01 T00261020  RH  072%=      5-min Rain = 0
KFAS 151530Z 30005KT 03/M02 A3028 RMK A01 T00281021  RH  071%=      5-min Rain = 0
KFAS 151535Z 31006KT 03/M02 A3028 RMK A01 T00311022  RH  069%=      5-min Rain = 0
KFAS 151540Z 31006KT 03/M02 A3028 RMK A01 T00321024  RH  068%=      5-min Rain = 0
KFAS 151545Z 30005KT 04/M02 A3028 RMK A01 T00351020  RH  068%=      5-min Rain = 0
KFAS 151550Z 30006KT 04/M02 A3028 RMK A01 T00371022  RH  066%=      5-min Rain = 0
KFAS 151555Z 30005KT 04/M02 A3028 RMK A01 T00401021  RH  065%=      5-min Rain = 0
KFAS 151600Z 33006KT 04/M02 A3028 RMK A01 T00411024  RH  064%=      5-min Rain = 0
KFAS 151605Z 33005KT 04/M03 A3028 RMK A01 T00441025  RH  062%=      5-min Rain = 0
KFAS 151610Z 32006KT 05/M03 A3028 RMK A01 T00451032  RH  058%=      5-min Rain = 0
KFAS 151615Z 33005KT 05/M03 A3028 RMK A01 T00461031  RH  058%=      5-min Rain = 0
KFAS 151620Z 33005KT 05/M03 A3028 RMK A01 T00491031  RH  057%=      5-min Rain = 0
KFAS 151625Z 33005KT 05/M03 A3028 RMK A01 T00511028  RH  057%=      5-min Rain = 0
KFAS 151630Z 34004KT 05/M03 A3028 RMK A01 T00511029  RH  057%=      5-min Rain = 0
KFAS 151635Z 32004KT 06/M03 A3028 RMK A01 T00551026  RH  057%=      5-min Rain = 0
KFAS 151640Z 32004KT 06/M03 A3028 RMK A01 T00571027  RH  055%=      5-min Rain = 0
KFAS 151645Z 32004KT 06/M02 A3028 RMK A01 T00601023  RH  056%=      5-min Rain = 0
KFAS 151650Z 28004KT 06/M02 A3028 RMK A01 T00631021  RH  056%=      5-min Rain = 0
KFAS 151655Z 31004KT 06/M02 A3028 RMK A01 T00631022  RH  055%=      5-min Rain = 0
KFAS 151700Z 30004KT 06/M02 A3028 RMK A01 T00641024  RH  054%=      5-min Rain = 0
KFAS 151705Z 30004KT 07/M04 A3028 RMK A01 T00651037  RH  049%=      5-min Rain = 0
KFAS 151710Z 31004KT 07/M04 A3028 RMK A01 T00681039  RH  047%=      5-min Rain = 0
KFAS 151715Z 32003KT 07/M03 A3028 RMK A01 T00711034  RH  048%=      5-min Rain = 0
KFAS 151720Z 32004KT 08/M03 A3028 RMK A01 T00751028  RH  049%=      5-min Rain = 0
KFAS 151725Z 30002KT 08/M02 A3027 RMK A01 T00761024  RH  050%=      5-min Rain = 0
KFAS 151730Z 33004KT 08/M03 A3027 RMK A01 T00801025  RH  048%=      5-min Rain = 0
KFAS 151735Z 31005KT 08/M03 A3027 RMK A01 T00801028  RH  047%=      5-min Rain = 0
KFAS 151740Z 32005KT 08/M03 A3027 RMK A01 T00811027  RH  047%=      5-min Rain = 0
KFAS 151745Z 29005KT 08/M03 A3027 RMK A01 T00831026  RH  047%=      5-min Rain = 0
KFAS 151750Z 29006G11KT 09/M03 A3027 RMK A01 T00861031  RH  044%=      5-min Rain = 0
KFAS 151755Z 33005KT 09/M03 A3026 RMK A01 T00871033  RH  043%=      5-min Rain = 0
KFAS 151800Z 30006G11KT 09/M03 A3026 RMK A01 T00901031  RH  043%=      5-min Rain = 0
KFAS 151805Z 30005KT 09/M03 A3026 RMK A01 T00891034  RH  042%=      5-min Rain = 0
KFAS 151810Z 29004KT 09/M03 A3026 RMK A01 T00921032  RH  042%=      5-min Rain = 0
KFAS 151815Z 29004KT 09/M03 A3025 RMK A01 T00941033  RH  041%=      5-min Rain = 0
KFAS 151820Z 30005KT 10/M03 A3025 RMK A01 T00961031  RH  041%=      5-min Rain = 0
KFAS 151825Z 30004KT 10/M03 A3025 RMK A01 T00981032  RH  040%=      5-min Rain = 0
KFAS 151830Z 32005KT 10/M04 A3024 RMK A01 T01001041  RH  037%=      5-min Rain = 0
KFAS 151835Z 31004G9KT 10/M04 A3024 RMK A01 T01011043  RH  037%=      5-min Rain = 0
KFAS 151840Z 33005KT 10/M04 A3024 RMK A01 T01041044  RH  035%=      5-min Rain = 0
KFAS 151845Z 31004KT 10/M05 A3023 RMK A01 T01011047  RH  035%=      5-min Rain = 0
KFAS 151850Z 32002G7KT 10/M04 A3023 RMK A01 T01021044  RH  036%=      5-min Rain = 0
KFAS 151855Z 34006KT 11/M05 A3023 RMK A01 T01051050  RH  034%=      5-min Rain = 0
KFAS 151900Z 35007KT 11/M05 A3023 RMK A01 T01081051  RH  033%=      5-min Rain = 0
KFAS 151905Z 36008G13KT 11/M05 A3022 RMK A01 T01101050  RH  032%=      5-min Rain = 0
KFAS 151910Z 33009KT 11/M05 A3022 RMK A01 T01111050  RH  032%=      5-min Rain = 0
KFAS 151915Z 33006G11KT 11/M05 A3022 RMK A01 T01131046  RH  033%=      5-min Rain = 0
KFAS 151920Z 32008KT 11/M05 A3021 RMK A01 T01131053  RH  031%=      5-min Rain = 0
KFAS 151925Z 36005KT 11/M05 A3021 RMK A01 T01121053  RH  031%=      5-min Rain = 0
KFAS 151930Z 30006KT 11/M05 A3021 RMK A01 T01131052  RH  031%=      5-min Rain = 0
KFAS 151935Z 29004KT 11/M05 A3021 RMK A01 T01131054  RH  031%=      5-min Rain = 0
KFAS 151940Z 30005G10KT 12/M05 A302 RMK A01 T01151049  RH  032%=      5-min Rain = 0
KFAS 151945Z 01005G10KT 12/M05 A302 RMK A01 T01201045  RH  032%=      5-min Rain = 0
KFAS 151950Z 02007KT 12/M05 A302 RMK A01 T01201045  RH  032%=      5-min Rain = 0
KFAS 151955Z 35007KT 12/M05 A302 RMK A01 T01201045  RH  032%=      5-min Rain = 0
KFAS 152000Z 32002G7KT 12/M05 A3019 RMK A01 T01171050  RH  031%=      5-min Rain = 0
KFAS 152005Z 00002KT 12/M05 A3019 RMK A01 T01171051  RH  031%=      5-min Rain = 0
KFAS 152010Z 35005KT 12/M05 A3019 RMK A01 T01191048  RH  031%=      5-min Rain = 0
KFAS 152015Z 32008KT 12/M05 A3019 RMK A01 T01201052  RH  030%=      5-min Rain = 0
KFAS 152020Z 34004KT 12/M06 A3019 RMK A01 T01171055  RH  030%=      5-min Rain = 0
KFAS 152025Z 35004KT 12/M05 A3018 RMK A01 T01181053  RH  030%=      5-min Rain = 0
KFAS 152030Z 00005KT 12/M05 A3018 RMK A01 T01201050  RH  031%=      5-min Rain = 0
KFAS 152035Z 01003KT 12/M05 A3018 RMK A01 T01221047  RH  031%=      5-min Rain = 0
KFAS 152040Z 33003G9KT 12/M05 A3018 RMK A01 T01241045  RH  031%=      5-min Rain = 0
KFAS 152045Z 34004G9KT 13/M05 A3017 RMK A01 T01271048  RH  030%=      5-min Rain = 0
KFAS 152050Z 31003KT 13/M05 A3017 RMK A01 T01261053  RH  029%=      5-min Rain = 0
KFAS 152055Z 32003G8KT 13/M05 A3017 RMK A01 T01251052  RH  029%=      5-min Rain = 0
KFAS 152100Z 30003KT 13/M05 A3017 RMK A01 T01261053  RH  029%=      5-min Rain = 0
KFAS 152105Z 29003KT 13/M05 A3016 RMK A01 T01281050  RH  029%=      5-min Rain = 0
KFAS 152110Z 35005KT 13/M05 A3016 RMK A01 T01281051  RH  029%=      5-min Rain = 0
KFAS 152115Z 35004KT 13/M05 A3016 RMK A01 T01271051  RH  029%=      5-min Rain = 0
KFAS 152120Z 35003KT 13/M05 A3016 RMK A01 T01271052  RH  029%=      5-min Rain = 0
KFAS 152125Z 36003KT 13/M06 A3016 RMK A01 T01291055  RH  028%=      5-min Rain = 0
KFAS 152130Z 04003G9KT 13/M05 A3015 RMK A01 T01311050  RH  028%=      5-min Rain = 0
KFAS 152135Z 33006KT 13/M05 A3015 RMK A01 T01321050  RH  028%=      5-min Rain = 0
KFAS 152140Z 32005KT 13/M06 A3015 RMK A01 T01321055  RH  027%=      5-min Rain = 0
KFAS 152145Z 28003KT 13/M06 A3015 RMK A01 T01321056  RH  027%=      5-min Rain = 0
KFAS 152150Z 30003KT 13/M06 A3015 RMK A01 T01331057  RH  027%=      5-min Rain = 0
KFAS 152155Z 31002KT 13/M06 A3015 RMK A01 T01331056  RH  027%=      5-min Rain = 0
KFAS 152200Z 30002KT 14/M06 A3014 RMK A01 T01351056  RH  026%=      5-min Rain = 0
KFAS 152205Z 35002KT 13/M05 A3014 RMK A01 T01341054  RH  027%=      5-min Rain = 0
KFAS 152210Z 21003G10KT 14/M05 A3014 RMK A01 T01351054  RH  027%=      5-min Rain = 0
KFAS 152215Z 18003KT 14/M06 A3014 RMK A01 T01381055  RH  026%=      5-min Rain = 0
KFAS 152220Z 24002KT 14/M06 A3013 RMK A01 T01391055  RH  026%=      5-min Rain = 0
KFAS 152225Z 28003KT 14/M06 A3013 RMK A01 T01361055  RH  026%=      5-min Rain = 0
KFAS 152230Z 32001KT 13/M06 A3013 RMK A01 T01341056  RH  027%=      5-min Rain = 0
KFAS 152235Z 25004KT 14/M06 A3013 RMK A01 T01361060  RH  025%=      5-min Rain = 0
KFAS 152240Z 32003KT 13/M06 A3013 RMK A01 T01341060  RH  026%=      5-min Rain = 0
KFAS 152245Z 33002KT 14/M06 A3012 RMK A01 T01351061  RH  025%=      5-min Rain = 0
KFAS 152250Z 26003KT 14/M06 A3012 RMK A01 T01361062  RH  025%=      5-min Rain = 0
KFAS 152255Z 24006KT 14/M06 A3012 RMK A01 T01361062  RH  025%=      5-min Rain = 0
KFAS 152300Z 23004KT 14/M06 A3012 RMK A01 T01351064  RH  025%=      5-min Rain = 0
KFAS 152305Z 27002KT 14/M06 A3012 RMK A01 T01361064  RH  025%=      5-min Rain = 0
KFAS 152310Z 24003KT 14/M06 A3012 RMK A01 T01371064  RH  024%=      5-min Rain = 0
KFAS 152315Z 24005KT 14/M07 A3012 RMK A01 T01361065  RH  025%=      5-min Rain = 0
KFAS 152320Z 25006KT 13/M06 A3012 RMK A01 T01341062  RH  025%=      5-min Rain = 0
KFAS 152325Z 24007KT 13/M06 A3011 RMK A01 T01321063  RH  026%=      5-min Rain = 0
KFAS 152330Z 25006KT 13/M06 A3012 RMK A01 T01301060  RH  026%=      5-min Rain = 0
KFAS 152335Z 25005KT 13/M06 A3011 RMK A01 T01301059  RH  027%=      5-min Rain = 0
KFAS 152340Z 25004KT 13/M06 A3011 RMK A01 T01301059  RH  027%=      5-min Rain = 0
KFAS 152345Z 25005KT 13/M06 A3011 RMK A01 T01291057  RH  027%=      5-min Rain = 0
KFAS 152350Z 23005KT 13/M05 A3011 RMK A01 T01271051  RH  029%=      5-min Rain = 0
KFAS 152355Z 23004KT 13/M05 A3011 RMK A01 T01251053  RH  029%=      5-min Rain = 0
KFAS 160000Z 25004KT 12/M05 A3011 RMK A01 T01241050  RH  030%=      5-min Rain = 0
KFAS 160005Z 25004KT 12/M04 A3011 RMK A01 T01201042  RH  032%=      5-min Rain = 0
KFAS 160010Z 25004KT 12/M04 A3011 RMK A01 T01161042  RH  033%=      5-min Rain = 0
KFAS 160015Z 25004KT 11/M04 A3011 RMK A01 T01111039  RH  035%=      5-min Rain = 0
KFAS 160020Z 25005KT 11/M04 A3011 RMK A01 T01061035  RH  037%=      5-min Rain = 0
KFAS 160025Z 24005KT 10/M03 A3011 RMK A01 T01011029  RH  041%=      5-min Rain = 0
KFAS 160030Z 23005KT 09/M03 A3011 RMK A01 T00941029  RH  042%=      5-min Rain = 0
KFAS 160035Z 23004KT 09/M04 A3011 RMK A01 T00871035  RH  043%=      5-min Rain = 0
KFAS 160040Z 20004KT 08/M04 A3011 RMK A01 T00841037  RH  043%=      5-min Rain = 0
KFAS 160045Z 21005KT 08/M03 A3011 RMK A01 T00801027  RH  047%=      5-min Rain = 0
KFAS 160050Z 21005KT 07/M02 A3011 RMK A01 T00741021  RH  051%=      5-min Rain = 0
KFAS 160055Z 21005KT 07/M02 A3011 RMK A01 T00701019  RH  054%=      5-min Rain = 0
KFAS 160100Z 21005KT 07/M02 A3011 RMK A01 T00651021  RH  055%=      5-min Rain = 0
KFAS 160105Z 20006KT 06/M02 A3011 RMK A01 T00621021  RH  056%=      5-min Rain = 0
KFAS 160110Z 20006KT 06/M02 A3011 RMK A01 T00561018  RH  060%=      5-min Rain = 0
KFAS 160115Z 20008KT 05/M01 A3011 RMK A01 T00511014  RH  063%=      5-min Rain = 0
KFAS 160120Z 20007KT 05/M02 A3011 RMK A01 T00471016  RH  064%=      5-min Rain = 0
KFAS 160125Z 20007KT 05/M02 A3011 RMK A01 T00461017  RH  064%=      5-min Rain = 0
KFAS 160130Z 20008KT 05/M02 A3011 RMK A01 T00451015  RH  066%=      5-min Rain = 0
KFAS 160135Z 19008KT 04/M02 A3011 RMK A01 T00391015  RH  069%=      5-min Rain = 0
KFAS 160140Z 20007KT 04/M02 A3011 RMK A01 T00361015  RH  070%=      5-min Rain = 0
KFAS 160145Z 20007KT 04/M02 A3011 RMK A01 T00351015  RH  071%=      5-min Rain = 0
KFAS 160150Z 21008KT 04/M02 A3011 RMK A01 T00361016  RH  070%=      5-min Rain = 0
KFAS 160155Z 21007KT 03/M02 A3011 RMK A01 T00341018  RH  069%=      5-min Rain = 0
KFAS 160200Z 20008KT 03/M02 A3011 RMK A01 T00321017  RH  071%=      5-min Rain = 0
KFAS 160205Z 20008KT 04/M02 A3011 RMK A01 T00351017  RH  070%=      5-min Rain = 0
KFAS 160210Z 21007KT 03/M02 A3011 RMK A01 T00331016  RH  071%=      5-min Rain = 0
KFAS 160215Z 21007KT 03/M02 A3011 RMK A01 T00301016  RH  073%=      5-min Rain = 0
KFAS 160220Z 21007KT 03/M02 A3011 RMK A01 T00281016  RH  073%=      5-min Rain = 0
KFAS 160225Z 21007KT 03/M02 A3012 RMK A01 T00261015  RH  076%=      5-min Rain = 0
KFAS 160230Z 21006KT 03/M01 A3012 RMK A01 T00251014  RH  076%=      5-min Rain = 0
KFAS 160235Z 21006KT 02/M02 A3012 RMK A01 T00221015  RH  077%=      5-min Rain = 0
KFAS 160240Z 22006KT 02/M01 A3012 RMK A01 T00211014  RH  078%=      5-min Rain = 0
KFAS 160245Z 22005KT 02/M01 A3012 RMK A01 T00211014  RH  079%=      5-min Rain = 0
KFAS 160250Z 22005KT 02/M02 A3012 RMK A01 T00201016  RH  078%=      5-min Rain = 0
KFAS 160255Z 23003KT 02/M01 A3012 RMK A01 T00181014  RH  080%=      5-min Rain = 0
KFAS 160300Z 26002KT 02/M01 A3012 RMK A01 T00221011  RH  079%=      5-min Rain = 0
KFAS 160305Z 25003KT 02/M01 A3012 RMK A01 T00231014  RH  077%=      5-min Rain = 0
KFAS 160310Z 26005KT 02/M02 A3013 RMK A01 T00201019  RH  076%=      5-min Rain = 0
KFAS 160315Z 26006KT 02/M02 A3013 RMK A01 T00181021  RH  076%=      5-min Rain = 0
KFAS 160320Z 25006KT 02/M02 A3013 RMK A01 T00191022  RH  075%=      5-min Rain = 0
KFAS 160325Z 25006KT 02/M02 A3013 RMK A01 T00201023  RH  074%=      5-min Rain = 0
KFAS 160330Z 26005KT 02/M02 A3013 RMK A01 T00171024  RH  075%=      5-min Rain = 0
KFAS 160335Z 26005KT 01/M02 A3013 RMK A01 T00141024  RH  077%=      5-min Rain = 0
KFAS 160340Z 26005KT 01/M03 A3013 RMK A01 T00121025  RH  077%=      5-min Rain = 0
KFAS 160345Z 26005KT 01/M03 A3013 RMK A01 T00091026  RH  078%=      5-min Rain = 0
KFAS 160350Z 26006KT 01/M03 A3013 RMK A01 T00051028  RH  080%=      5-min Rain = 0
KFAS 160355Z 25007KT 00/M03 A3013 RMK A01 T00031027  RH  081%=      5-min Rain = 0
KFAS 160400Z 25007KT 00/M03 A3013 RMK A01 T00031028  RH  081%=      5-min Rain = 0
KFAS 160405Z 25007KT 00/03 A3013 RMK A01 T00000-29  RH  082%=      5-min Rain = 0
KFAS 160410Z 25007KT M00/M03 A3013 RMK A01 T10021029  RH  083%=      5-min Rain = 0
KFAS 160415Z 26007KT M00/M03 A3013 RMK A01 T10031029  RH  084%=      5-min Rain = 0
KFAS 160420Z 25008KT M00/M03 A3013 RMK A01 T10021028  RH  084%=      5-min Rain = 0
KFAS 160425Z 25009KT M00/M03 A3013 RMK A01 T10011027  RH  084%=      5-min Rain = 0
KFAS 160430Z 25008KT 00/M03 A3012 RMK A01 T00031025  RH  082%=      5-min Rain = 0
KFAS 160435Z 25007KT 00/M03 A3012 RMK A01 T00041027  RH  081%=      5-min Rain = 0
KFAS 160440Z 25007KT 00/M03 A3012 RMK A01 T00021029  RH  081%=      5-min Rain = 0
KFAS 160445Z 25008KT 00/M03 A3012 RMK A01 T00011029  RH  082%=      5-min Rain = 0
KFAS 160450Z 25009KT 01/M03 A3012 RMK A01 T00051027  RH  080%=      5-min Rain = 0
KFAS 160455Z 25008KT 01/M03 A3012 RMK A01 T00071027  RH  079%=      5-min Rain = 0
KFAS 160500Z 25008KT 01/M03 A3012 RMK A01 T00061028  RH  079%=      5-min Rain = 0
KFAS 160505Z 25008KT 00/M03 A3011 RMK A01 T00041029  RH  079%=      5-min Rain = 0
KFAS 160510Z 25007KT 00/M03 A3011 RMK A01 T00011030  RH  080%=      5-min Rain = 0
KFAS 160515Z 25007KT M00/M03 A3011 RMK A01 T10021031  RH  081%=      5-min Rain = 0
KFAS 160520Z 25007KT M00/M03 A3011 RMK A01 T10041031  RH  083%=      5-min Rain = 0
KFAS 160525Z 25007KT M01/M03 A3011 RMK A01 T10051031  RH  084%=      5-min Rain = 0
KFAS 160530Z 26007KT M00/M03 A3011 RMK A01 T10031029  RH  084%=      5-min Rain = 0
KFAS 160535Z 25007KT M00/M03 A3011 RMK A01 T10021030  RH  082%=      5-min Rain = 0
KFAS 160540Z 26007KT M00/M03 A3011 RMK A01 T10031030  RH  083%=      5-min Rain = 0
KFAS 160545Z 25007KT M00/M03 A3011 RMK A01 T10031030  RH  083%=      5-min Rain = 0
KFAS 160550Z 25007KT M00/M03 A3011 RMK A01 T10031031  RH  083%=      5-min Rain = 0
KFAS 160555Z 26007KT M00/M03 A3011 RMK A01 T10021030  RH  082%=      5-min Rain = 0

Page generated in 0.0089 seconds.